Time;durP1;ratioP1;P1;durP2;ratioP2;P2;SDS_P1;SDS_P2;PMS_P1;PMS_P2;Temp;Humidity;BMP_temperature;BMP_pressure;BME280_temperature;BME280_humidity;BME280_pressure;Samples;Min_cycle;Max_cycle;Signal;HPM_P1;HPM_P2
2023/12/17 00:01:56;;;;;;;0.82;0.82;;;9.70;99.90;;;;;;5123121;27;20399;-77
2023/12/17 00:04:22;;;;;;;0.45;0.45;;;9.70;99.90;;;;;;5123722;27;20103;-80
2023/12/17 00:06:47;;;;;;;2.10;1.98;;;9.70;99.90;;;;;;5125660;27;20039;-79
2023/12/17 00:09:13;;;;;;;0.43;0.43;;;9.70;99.90;;;;;;5136017;27;20043;-78
2023/12/17 00:11:40;;;;;;;0.50;0.50;;;9.70;99.90;;;;;;5125148;27;20039;-77
2023/12/17 00:14:06;;;;;;;1.05;1.05;;;9.80;99.90;;;;;;5129500;27;20138;-76
2023/12/17 00:16:32;;;;;;;2.42;2.28;;;9.80;99.90;;;;;;5125734;27;20031;-76
2023/12/17 00:18:57;;;;;;;0.52;0.52;;;9.80;99.90;;;;;;5125093;27;20860;-78
2023/12/17 00:21:23;;;;;;;1.17;1.08;;;9.70;99.90;;;;;;5123586;27;20058;-78
2023/12/17 00:23:49;;;;;;;1.35;1.25;;;9.70;99.90;;;;;;5126494;27;20373;-78
2023/12/17 00:26:15;;;;;;;0.50;0.50;;;9.70;99.90;;;;;;5129752;27;20054;-76
2023/12/17 00:28:41;;;;;;;0.40;0.40;;;9.70;99.90;;;;;;5126183;27;20039;-78
2023/12/17 00:31:06;;;;;;;0.73;0.73;;;9.70;99.90;;;;;;5126701;27;20104;-78
2023/12/17 00:33:32;;;;;;;0.43;0.43;;;9.70;99.90;;;;;;5128141;27;20039;-79
2023/12/17 00:35:58;;;;;;;0.40;0.40;;;9.70;99.90;;;;;;5125690;27;20043;-77
2023/12/17 00:38:23;;;;;;;0.63;0.63;;;9.70;99.90;;;;;;5109131;27;20045;-79
2023/12/17 00:40:49;;;;;;;0.52;0.52;;;9.70;99.90;;;;;;5125287;27;20039;-77
2023/12/17 00:43:15;;;;;;;0.77;0.77;;;9.80;99.90;;;;;;5109720;27;20265;-78
2023/12/17 00:45:40;;;;;;;0.70;0.70;;;9.70;99.90;;;;;;5139606;27;20054;-79
2023/12/17 00:48:06;;;;;;;0.60;0.60;;;9.70;99.90;;;;;;5131742;27;20054;-80
2023/12/17 00:50:31;;;;;;;1.02;0.75;;;9.70;99.90;;;;;;5130270;27;20050;-79
2023/12/17 00:52:57;;;;;;;0.50;0.50;;;9.80;99.90;;;;;;5127985;27;20043;-79
2023/12/17 00:55:23;;;;;;;0.63;0.55;;;9.70;99.90;;;;;;5113523;27;20035;-78
2023/12/17 00:57:49;;;;;;;0.47;0.47;;;9.70;99.90;;;;;;5129892;27;20492;-80
2023/12/17 01:00:15;;;;;;;0.45;0.45;;;9.70;99.90;;;;;;5130489;27;20054;-81
2023/12/17 01:02:41;;;;;;;0.85;0.63;;;9.70;99.90;;;;;;5131346;27;20620;-81
2023/12/17 01:05:07;;;;;;;;;;;9.70;99.90;;;;;;5128788;27;20117;-75
2023/12/17 01:07:32;;;;;;;0.60;0.60;;;9.70;99.90;;;;;;5134925;27;20388;-79
2023/12/17 01:09:58;;;;;;;0.30;0.30;;;9.70;99.90;;;;;;5135538;27;20087;-76
2023/12/17 01:12:24;;;;;;;0.60;0.60;;;9.70;99.90;;;;;;5114693;27;20091;-76
2023/12/17 01:14:49;;;;;;;0.88;0.88;;;9.70;99.90;;;;;;5128465;27;20035;-78
2023/12/17 01:17:15;;;;;;;1.33;1.23;;;9.80;99.90;;;;;;5114452;27;20119;-76
2023/12/17 01:19:41;;;;;;;1.70;1.60;;;9.70;99.90;;;;;;5132195;27;20054;-75
2023/12/17 01:22:06;;;;;;;0.40;0.40;;;9.80;99.90;;;;;;5131836;27;20074;-76
2023/12/17 01:24:32;;;;;;;0.43;0.43;;;9.80;99.90;;;;;;5116294;27;20035;-80
2023/12/17 01:26:59;;;;;;;0.38;0.38;;;9.80;99.90;;;;;;5131734;27;20035;-79
2023/12/17 01:29:24;;;;;;;1.20;1.20;;;9.80;99.90;;;;;;5112873;27;20061;-77
2023/12/17 01:31:50;;;;;;;0.45;0.45;;;9.80;99.90;;;;;;5134759;27;20067;-78
2023/12/17 01:34:16;;;;;;;1.10;1.10;;;9.80;99.90;;;;;;5130131;27;20042;-77
2023/12/17 01:36:41;;;;;;;0.40;0.40;;;9.80;99.90;;;;;;5129914;27;20043;-78
2023/12/17 01:39:07;;;;;;;0.65;0.65;;;9.80;99.90;;;;;;5132636;27;20499;-77
2023/12/17 01:41:33;;;;;;;0.40;0.40;;;9.80;99.90;;;;;;5130182;27;20158;-81
2023/12/17 01:43:58;;;;;;;1.40;1.33;;;9.80;99.90;;;;;;5133448;27;20499;-80
2023/12/17 01:46:25;;;;;;;1.02;1.02;;;9.80;99.90;;;;;;5136016;27;20031;-79
2023/12/17 01:48:51;;;;;;;0.60;0.60;;;9.80;99.90;;;;;;5130423;27;20126;-78
2023/12/17 01:51:17;;;;;;;1.45;0.98;;;9.80;99.90;;;;;;5131519;27;20118;-83
2023/12/17 01:53:43;;;;;;;0.75;0.73;;;9.80;99.90;;;;;;5129410;27;20070;-78
2023/12/17 01:56:10;;;;;;;;;;;9.80;99.90;;;;;;5129837;27;20043;-78
2023/12/17 01:58:36;;;;;;;0.40;0.40;;;9.80;99.90;;;;;;5124195;27;20252;-83
2023/12/17 02:01:02;;;;;;;1.05;1.05;;;9.80;99.90;;;;;;5134314;27;20047;-77
2023/12/17 02:03:28;;;;;;;0.40;0.40;;;9.70;99.90;;;;;;5131912;27;20506;-80
2023/12/17 02:05:54;;;;;;;0.30;0.30;;;9.80;99.90;;;;;;5129112;27;20035;-78
2023/12/17 02:08:20;;;;;;;1.88;1.75;;;9.80;99.90;;;;;;5130121;27;20153;-76
2023/12/17 02:10:45;;;;;;;0.60;0.60;;;9.80;99.90;;;;;;5132141;27;20035;-79
2023/12/17 02:13:11;;;;;;;0.65;0.65;;;9.80;99.90;;;;;;5131267;27;20042;-78
2023/12/17 02:15:37;;;;;;;0.93;0.93;;;9.80;99.90;;;;;;5131506;27;20408;-78
2023/12/17 02:18:03;;;;;;;0.43;0.40;;;9.80;99.90;;;;;;5129914;27;20054;-78
2023/12/17 02:20:29;;;;;;;0.38;0.38;;;9.80;99.90;;;;;;5128189;27;20476;-79
2023/12/17 02:22:58;;;;;;;0.70;0.50;;;9.80;99.90;;;;;;5131398;27;20040;-79
2023/12/17 02:25:24;;;;;;;2.90;2.67;;;9.80;99.90;;;;;;5128731;27;20039;-77
2023/12/17 02:27:50;;;;;;;0.57;0.57;;;9.80;99.90;;;;;;5130610;27;20360;-79
2023/12/17 02:30:17;;;;;;;0.45;0.45;;;9.80;99.90;;;;;;5131042;27;20125;-77
2023/12/17 02:32:43;;;;;;;1.67;1.60;;;9.80;99.90;;;;;;5129574;27;20042;-75
2023/12/17 02:35:09;;;;;;;0.30;0.30;;;9.80;99.90;;;;;;5128731;27;20456;-77
2023/12/17 02:37:34;;;;;;;0.50;0.50;;;9.80;99.90;;;;;;5115737;27;20495;-78
2023/12/17 02:40:00;;;;;;;0.40;0.40;;;9.80;99.90;;;;;;5129483;27;20039;-78
2023/12/17 02:42:26;;;;;;;1.33;1.33;;;9.90;99.90;;;;;;5128617;27;20035;-76
2023/12/17 02:44:51;;;;;;;0.55;0.55;;;9.90;99.90;;;;;;5111070;28;20070;-79
2023/12/17 02:47:17;;;;;;;0.40;0.40;;;9.80;99.90;;;;;;5110972;27;20046;-77
2023/12/17 02:49:43;;;;;;;3.60;0.52;;;9.80;99.90;;;;;;5129615;27;20046;-77
2023/12/17 02:52:08;;;;;;;0.40;0.40;;;9.80;99.90;;;;;;5110541;27;20054;-78
2023/12/17 02:54:35;;;;;;;0.45;0.45;;;9.90;99.90;;;;;;5131980;27;20130;-75
2023/12/17 02:57:01;;;;;;;2.20;1.48;;;9.90;99.90;;;;;;5112921;27;20050;-77
2023/12/17 02:59:26;;;;;;;0.60;0.60;;;9.90;99.90;;;;;;5131756;27;20051;-79
2023/12/17 03:01:52;;;;;;;0.30;0.30;;;9.90;99.90;;;;;;5133014;27;20480;-81
2023/12/17 03:04:18;;;;;;;1.05;0.82;;;9.90;99.90;;;;;;5131044;27;20023;-80
2023/12/17 03:06:43;;;;;;;0.40;0.40;;;9.90;99.90;;;;;;5131089;27;20038;-78
2023/12/17 03:09:11;;;;;;;2.35;2.15;;;9.80;99.90;;;;;;5112644;28;20134;-77
2023/12/17 03:11:37;;;;;;;0.60;0.60;;;9.80;99.90;;;;;;5133784;27;20039;-82
2023/12/17 03:14:02;;;;;;;;;;;9.80;99.90;;;;;;5113003;28;20035;-80
2023/12/17 03:16:28;;;;;;;0.60;0.60;;;9.80;99.90;;;;;;5111303;27;19915;-79
2023/12/17 03:18:54;;;;;;;0.40;0.40;;;9.80;99.90;;;;;;5127114;27;20046;-80
2023/12/17 03:21:23;;;;;;;0.40;0.40;;;9.80;99.90;;;;;;5129457;27;20407;-80
2023/12/17 03:23:49;;;;;;;0.52;0.50;;;9.70;99.90;;;;;;5113679;27;20099;-79
2023/12/17 03:26:15;;;;;;;0.50;0.50;;;9.70;99.90;;;;;;5129244;27;20087;-78
2023/12/17 03:28:41;;;;;;;1.33;1.23;;;9.70;99.90;;;;;;5131180;27;20400;-81
2023/12/17 03:31:06;;;;;;;0.82;0.82;;;9.70;99.90;;;;;;5129895;27;20043;-77
2023/12/17 03:33:32;;;;;;;2.00;1.88;;;9.70;99.90;;;;;;5130109;27;20031;-78
2023/12/17 03:35:58;;;;;;;0.70;0.68;;;9.70;99.90;;;;;;5130975;27;20172;-79
2023/12/17 03:38:23;;;;;;;2.65;0.73;;;9.60;99.90;;;;;;5131735;27;20054;-79
2023/12/17 03:40:49;;;;;;;0.55;0.55;;;9.60;99.90;;;;;;5132358;27;20051;-78
2023/12/17 03:43:14;;;;;;;0.80;0.80;;;9.60;99.90;;;;;;5099875;27;20039;-78
2023/12/17 03:45:40;;;;;;;0.55;0.55;;;9.70;99.90;;;;;;5132625;27;20031;-82
2023/12/17 03:48:06;;;;;;;0.40;0.40;;;9.60;99.90;;;;;;5132882;27;20047;-82
2023/12/17 03:50:32;;;;;;;0.82;0.82;;;9.60;99.90;;;;;;5119588;27;20038;-79
2023/12/17 03:52:58;;;;;;;0.47;0.45;;;9.60;99.90;;;;;;5117958;27;20088;-77
2023/12/17 03:55:24;;;;;;;0.73;0.73;;;9.70;99.90;;;;;;5115506;27;20047;-79
2023/12/17 03:57:49;;;;;;;0.70;0.70;;;9.70;99.90;;;;;;5132335;27;20118;-77
2023/12/17 04:00:15;;;;;;;0.90;0.88;;;9.80;99.90;;;;;;5112353;27;20039;-77
2023/12/17 04:02:41;;;;;;;0.85;0.85;;;9.60;99.90;;;;;;5138254;27;20492;-79
2023/12/17 04:05:08;;;;;;;1.15;1.10;;;9.70;99.90;;;;;;5131516;27;20039;-77
2023/12/17 04:07:34;;;;;;;1.75;0.93;;;9.60;99.90;;;;;;5137178;27;20045;-77
2023/12/17 04:10:03;;;;;;;0.82;0.70;;;9.70;99.90;;;;;;5132254;27;20126;-78
2023/12/17 04:12:29;;;;;;;1.15;1.02;;;9.70;99.90;;;;;;5130836;27;20125;-75
2023/12/17 04:14:54;;;;;;;0.73;0.63;;;9.70;99.90;;;;;;5131186;27;20138;-81
2023/12/17 04:17:20;;;;;;;1.40;1.30;;;9.70;99.90;;;;;;5111348;27;20370;-80
2023/12/17 04:19:46;;;;;;;0.60;0.60;;;9.70;99.90;;;;;;5133295;27;20054;-77
2023/12/17 04:22:11;;;;;;;0.95;0.52;;;9.60;99.90;;;;;;5114306;27;20129;-77
2023/12/17 04:24:37;;;;;;;1.08;0.55;;;9.70;99.90;;;;;;5133593;27;20479;-78
2023/12/17 04:27:03;;;;;;;0.73;0.73;;;9.70;99.90;;;;;;5130561;27;20070;-77
2023/12/17 04:29:29;;;;;;;0.52;0.52;;;9.60;99.90;;;;;;5132532;27;20035;-78
2023/12/17 04:31:55;;;;;;;1.10;1.02;;;9.70;99.90;;;;;;5131466;27;20092;-78
2023/12/17 04:34:20;;;;;;;0.70;0.70;;;9.70;99.90;;;;;;5113157;27;20054;-76
2023/12/17 04:36:46;;;;;;;1.55;1.27;;;9.70;99.90;;;;;;5133164;27;20117;-79
2023/12/17 04:39:12;;;;;;;0.30;0.30;;;9.60;99.90;;;;;;5099029;27;20070;-78
2023/12/17 04:41:39;;;;;;;0.40;0.40;;;9.60;99.90;;;;;;5114263;27;20051;-79
2023/12/17 04:44:05;;;;;;;0.30;0.30;;;9.60;99.90;;;;;;5119026;27;20384;-77
2023/12/17 04:46:31;;;;;;;0.40;0.40;;;9.60;99.90;;;;;;5134039;27;20062;-79
2023/12/17 04:48:57;;;;;;;0.60;0.60;;;9.60;99.90;;;;;;5129861;27;20035;-76
2023/12/17 04:51:23;;;;;;;0.70;0.60;;;9.60;99.90;;;;;;5114470;27;20043;-77
2023/12/17 04:53:52;;;;;;;0.40;0.40;;;9.60;99.90;;;;;;5131389;27;20553;-79
2023/12/17 04:56:20;;;;;;;1.30;1.02;;;9.60;99.90;;;;;;5132098;27;20395;-78
2023/12/17 04:58:46;;;;;;;0.30;0.30;;;9.60;99.90;;;;;;5130389;27;20079;-78
2023/12/17 05:01:12;;;;;;;0.55;0.55;;;10.50;99.90;;;;;;5132410;27;20074;-79
2023/12/17 05:03:38;;;;;;;0.40;0.40;;;9.60;99.90;;;;;;5136036;27;20043;-76
2023/12/17 05:06:04;;;;;;;;;;;9.60;99.90;;;;;;5134135;27;20046;-76
2023/12/17 05:08:30;;;;;;;0.43;0.43;;;9.60;99.90;;;;;;5131407;27;19976;-75
2023/12/17 05:10:55;;;;;;;0.73;0.73;;;9.60;99.90;;;;;;5129625;27;20043;-76
2023/12/17 05:13:21;;;;;;;0.43;0.43;;;9.70;99.90;;;;;;5129413;27;20456;-77
2023/12/17 05:15:46;;;;;;;2.78;2.50;;;9.60;99.90;;;;;;5140076;27;20045;-79
2023/12/17 05:18:12;;;;;;;1.25;1.13;;;9.50;99.90;;;;;;5135409;27;20047;-76
2023/12/17 05:20:38;;;;;;;0.93;0.93;;;9.50;99.90;;;;;;5111943;27;20042;-76
2023/12/17 05:23:03;;;;;;;8.85;1.25;;;9.50;99.90;;;;;;5132979;27;20126;-79
2023/12/17 05:25:29;;;;;;;0.40;0.40;;;9.50;99.90;;;;;;5131206;27;20424;-76
2023/12/17 05:27:55;;;;;;;0.60;0.60;;;9.50;99.90;;;;;;5129719;27;20461;-78
2023/12/17 05:30:22;;;;;;;1.17;0.75;;;9.50;99.90;;;;;;5129885;27;20130;-79
2023/12/17 05:32:49;;;;;;;0.70;0.55;;;9.40;99.90;;;;;;5128835;27;20043;-78
2023/12/17 05:35:14;;;;;;;0.57;0.57;;;9.40;99.90;;;;;;5114166;27;20039;-76
2023/12/17 05:37:40;;;;;;;0.50;0.43;;;9.40;99.90;;;;;;5131975;27;20035;-80
2023/12/17 05:40:07;;;;;;;1.05;0.90;;;9.40;99.90;;;;;;5129445;27;20043;-78
2023/12/17 05:42:34;;;;;;;0.40;0.40;;;9.40;99.90;;;;;;5129687;27;20047;-78
2023/12/17 05:45:00;;;;;;;0.50;0.50;;;9.40;99.90;;;;;;5132946;27;20062;-78
2023/12/17 05:47:26;;;;;;;;;;;9.40;99.90;;;;;;5130753;27;20043;-78
2023/12/17 05:49:51;;;;;;;0.75;0.75;;;9.40;99.90;;;;;;5130691;27;19915;-77
2023/12/17 05:52:17;;;;;;;0.50;0.50;;;9.30;99.90;;;;;;5132307;27;20141;-78
2023/12/17 05:54:44;;;;;;;0.40;0.40;;;9.30;99.90;;;;;;5131791;27;20086;-81
2023/12/17 05:57:10;;;;;;;0.57;0.57;;;9.30;99.90;;;;;;5105221;27;20039;-80
2023/12/17 05:59:35;;;;;;;0.55;0.55;;;9.30;99.90;;;;;;5129208;27;20038;-81
2023/12/17 06:02:01;;;;;;;0.57;0.57;;;9.30;99.90;;;;;;5129994;27;20031;-79
2023/12/17 06:04:27;;;;;;;3.58;1.70;;;9.20;99.90;;;;;;5133375;27;20111;-78
2023/12/17 06:06:56;;;;;;;0.90;0.90;;;9.30;99.90;;;;;;5128765;27;20035;-78
2023/12/17 06:09:25;;;;;;;0.60;0.60;;;9.30;99.90;;;;;;5131380;27;20031;-80
2023/12/17 06:11:51;;;;;;;0.75;0.65;;;9.30;99.90;;;;;;5128434;27;20038;-76
2023/12/17 06:14:17;;;;;;;0.40;0.40;;;9.30;99.90;;;;;;5131473;27;20035;-78
2023/12/17 06:16:44;;;;;;;0.85;0.82;;;9.30;99.90;;;;;;5133842;27;20039;-78
2023/12/17 06:19:10;;;;;;;7.80;2.08;;;9.30;99.90;;;;;;5095394;27;20054;-77
2023/12/17 06:21:36;;;;;;;0.60;0.60;;;9.30;99.90;;;;;;5133488;27;20053;-77
2023/12/17 06:24:03;;;;;;;0.40;0.40;;;9.30;99.90;;;;;;5130531;27;20034;-79
2023/12/17 06:26:29;;;;;;;1.20;1.10;;;9.30;99.90;;;;;;5127267;27;20043;-75
2023/12/17 06:28:55;;;;;;;;;;;9.30;99.90;;;;;;5110957;27;20438;-78
2023/12/17 06:31:21;;;;;;;1.65;1.55;;;9.30;99.90;;;;;;5128266;27;19919;-81
2023/12/17 06:33:47;;;;;;;;;;;9.30;99.90;;;;;;5110963;27;20361;-77
2023/12/17 06:36:12;;;;;;;0.63;0.63;;;9.30;99.90;;;;;;5090654;28;19922;-77
2023/12/17 06:38:39;;;;;;;0.70;0.70;;;9.30;99.90;;;;;;5111186;27;20043;-79
2023/12/17 06:41:07;;;;;;;0.80;0.80;;;9.30;99.90;;;;;;5131834;27;20047;-78
2023/12/17 06:43:33;;;;;;;0.50;0.50;;;9.30;99.90;;;;;;5110619;28;20043;-81
2023/12/17 06:45:58;;;;;;;3.15;1.15;;;9.30;99.90;;;;;;5132994;27;20491;-77
2023/12/17 06:48:24;;;;;;;0.70;0.70;;;9.30;99.90;;;;;;5115409;27;20519;-77
2023/12/17 06:50:50;;;;;;;1.05;1.00;;;9.30;99.90;;;;;;5128704;27;20450;-79
2023/12/17 06:53:17;;;;;;;0.70;0.70;;;9.30;99.90;;;;;;5131315;27;20043;-77
2023/12/17 06:55:45;;;;;;;0.82;0.82;;;9.20;99.90;;;;;;5128429;27;20039;-81
2023/12/17 06:58:12;;;;;;;2.03;0.95;;;9.30;99.90;;;;;;5128662;27;20442;-77
2023/12/17 07:00:37;;;;;;;;;;;9.30;99.90;;;;;;5112204;28;20074;-77
2023/12/17 07:03:03;;;;;;;0.75;0.75;;;9.20;99.90;;;;;;5131013;27;19958;-80
2023/12/17 07:05:29;;;;;;;0.30;0.30;;;9.30;99.90;;;;;;5130065;27;20114;-76
2023/12/17 07:07:54;;;;;;;0.57;0.57;;;9.20;99.90;;;;;;5110840;28;20087;-79
2023/12/17 07:10:21;;;;;;;3.17;2.92;;;9.20;99.90;;;;;;5131302;27;20070;-79
2023/12/17 07:12:47;;;;;;;1.58;1.48;;;9.20;99.90;;;;;;5131910;27;20042;-76
2023/12/17 07:15:13;;;;;;;0.73;0.73;;;9.30;99.90;;;;;;5136140;27;20039;-79
2023/12/17 07:17:39;;;;;;;1.10;1.05;;;9.30;99.90;;;;;;5132008;27;20104;-79
2023/12/17 07:20:06;;;;;;;1.25;0.88;;;9.20;99.90;;;;;;5136016;27;20079;-79
2023/12/17 07:22:31;;;;;;;0.55;0.55;;;9.20;99.90;;;;;;5132102;27;20454;-77
2023/12/17 07:24:57;;;;;;;3.20;1.10;;;9.20;99.90;;;;;;5133111;27;20130;-78
2023/12/17 07:27:22;;;;;;;0.50;0.50;;;9.20;99.90;;;;;;5133107;27;20525;-77
2023/12/17 07:29:48;;;;;;;0.43;0.43;;;9.30;99.90;;;;;;5130772;27;20471;-79
2023/12/17 07:32:14;;;;;;;0.47;0.47;;;9.20;99.90;;;;;;5132738;27;20065;-82
2023/12/17 07:34:39;;;;;;;0.40;0.40;;;9.20;99.90;;;;;;5132079;27;20034;-80
2023/12/17 07:37:05;;;;;;;0.88;0.88;;;9.20;99.90;;;;;;5131390;27;20047;-78
2023/12/17 07:39:31;;;;;;;0.77;0.75;;;9.20;99.90;;;;;;5133404;27;20079;-81
2023/12/17 07:41:57;;;;;;;0.75;0.73;;;9.20;99.90;;;;;;5130484;27;20037;-82
2023/12/17 07:44:22;;;;;;;1.27;0.57;;;9.20;99.90;;;;;;5128583;27;20042;-80
2023/12/17 07:46:48;;;;;;;0.50;0.50;;;9.20;99.90;;;;;;5129525;27;20046;-77
2023/12/17 07:49:14;;;;;;;;;;;9.20;99.90;;;;;;5131004;27;20050;-82
2023/12/17 07:51:40;;;;;;;0.95;0.80;;;8.70;99.90;;;;;;5088732;27;19920;-78
2023/12/17 07:54:06;;;;;;;1.33;1.23;;;9.10;99.90;;;;;;5129950;27;20798;-82
2023/12/17 07:56:32;;;;;;;0.38;0.38;;;9.20;99.90;;;;;;5112342;27;20035;-81
2023/12/17 07:58:58;;;;;;;0.40;0.40;;;9.20;99.90;;;;;;5129690;27;20050;-81
2023/12/17 08:01:31;;;;;;;0.30;0.30;;;9.20;99.90;;;;;;5132252;27;20080;-80
2023/12/17 08:03:57;;;;;;;0.70;0.70;;;9.10;99.90;;;;;;5113526;27;20046;-80
2023/12/17 08:06:24;;;;;;;;;;;9.10;99.90;;;;;;5132300;27;20041;-77
2023/12/17 08:08:50;;;;;;;2.40;2.15;;;9.10;99.90;;;;;;5136098;27;20371;-81
2023/12/17 08:11:16;;;;;;;1.15;0.63;;;9.20;99.90;;;;;;5123626;27;20035;-77
2023/12/17 08:13:43;;;;;;;0.47;0.47;;;9.10;99.90;;;;;;5128104;27;20434;-77
2023/12/17 08:16:09;;;;;;;0.70;0.70;;;9.10;99.90;;;;;;5129559;27;20046;-78
2023/12/17 08:18:35;;;;;;;0.50;0.47;;;9.10;99.90;;;;;;5130896;27;20043;-80
2023/12/17 08:21:01;;;;;;;2.75;1.15;;;9.10;99.90;;;;;;5127015;27;20145;-77
2023/12/17 08:23:27;;;;;;;1.13;1.13;;;9.10;99.90;;;;;;5108947;27;20039;-80
2023/12/17 08:25:54;;;;;;;0.47;0.47;;;9.10;99.90;;;;;;5112009;27;20040;-81
2023/12/17 08:28:20;;;;;;;0.68;0.68;;;9.10;99.90;;;;;;5129968;27;20039;-80
2023/12/17 08:30:46;;;;;;;;;;;9.10;99.90;;;;;;5137756;27;20325;-79
2023/12/17 08:33:13;;;;;;;1.20;1.20;;;9.00;99.90;;;;;;5118230;27;19915;-78
2023/12/17 08:35:38;;;;;;;;;;;9.00;99.90;;;;;;5136424;27;20495;-80
2023/12/17 08:38:06;;;;;;;0.38;0.38;;;9.00;99.90;;;;;;5133229;27;19950;-78
2023/12/17 08:40:39;;;;;;;0.50;0.50;;;9.10;99.90;;;;;;5135506;27;20066;-77
2023/12/17 08:43:09;;;;;;;0.45;0.45;;;9.00;99.90;;;;;;5128061;27;20038;-80
2023/12/17 08:45:35;;;;;;;0.98;0.93;;;9.00;99.90;;;;;;5144576;27;20039;-79
2023/12/17 08:48:01;;;;;;;;;;;9.00;99.90;;;;;;5136990;27;20039;-77
2023/12/17 08:50:27;;;;;;;2.08;0.68;;;9.10;99.90;;;;;;5133090;27;20232;-81
2023/12/17 08:52:54;;;;;;;1.13;1.02;;;9.10;99.90;;;;;;5105446;27;20051;-80
2023/12/17 08:55:20;;;;;;;0.85;0.82;;;9.10;99.90;;;;;;5128552;27;20043;-79
2023/12/17 08:57:49;;;;;;;1.30;1.20;;;9.10;99.90;;;;;;5132067;27;20039;-78
2023/12/17 09:00:17;;;;;;;8.60;0.93;;;9.10;99.90;;;;;;5142920;27;20035;-78
2023/12/17 09:02:43;;;;;;;0.63;0.63;;;9.10;99.90;;;;;;5135067;27;20115;-78
2023/12/17 09:05:09;;;;;;;1.17;1.15;;;9.10;99.90;;;;;;5135501;27;20070;-78
2023/12/17 09:07:36;;;;;;;0.50;0.50;;;9.20;99.90;;;;;;5124328;27;20400;-81
2023/12/17 09:10:02;;;;;;;1.02;0.52;;;9.10;99.90;;;;;;5112133;27;20059;-79
2023/12/17 09:12:28;;;;;;;0.47;0.47;;;9.20;99.90;;;;;;5137737;27;20176;-81
2023/12/17 09:14:54;;;;;;;1.35;0.93;;;9.20;99.90;;;;;;5147609;27;20115;-83
2023/12/17 09:17:20;;;;;;;2.25;1.85;;;9.20;99.90;;;;;;5137229;27;20512;-79
2023/12/17 09:19:47;;;;;;;1.27;0.88;;;9.20;99.90;;;;;;5138587;27;20073;-81
2023/12/17 09:22:13;;;;;;;0.77;0.77;;;9.20;99.90;;;;;;5136047;27;20055;-78
2023/12/17 09:24:40;;;;;;;1.00;0.93;;;9.30;99.90;;;;;;5131843;27;20074;-80
2023/12/17 09:27:05;;;;;;;1.42;1.33;;;9.20;99.90;;;;;;5130858;27;20035;-80
2023/12/17 09:29:32;;;;;;;2.10;0.65;;;9.20;99.90;;;;;;5133228;27;20037;-80
2023/12/17 09:31:58;;;;;;;1.25;1.00;;;9.30;99.90;;;;;;5119852;27;20085;-76
2023/12/17 09:34:24;;;;;;;1.27;1.17;;;9.30;99.90;;;;;;5127264;27;20035;-78
2023/12/17 09:36:49;;;;;;;0.70;0.70;;;9.30;99.90;;;;;;5121955;27;20039;-81
2023/12/17 09:39:15;;;;;;;3.13;2.88;;;9.30;99.90;;;;;;5119005;27;20035;-78
2023/12/17 09:41:42;;;;;;;0.57;0.57;;;9.30;99.90;;;;;;5101588;27;20043;-80
2023/12/17 09:44:08;;;;;;;0.95;0.90;;;9.30;99.90;;;;;;5103619;27;20052;-78
2023/12/17 09:46:35;;;;;;;1.15;1.10;;;9.40;99.90;;;;;;5123004;27;20037;-80
2023/12/17 09:49:01;;;;;;;1.98;0.82;;;9.40;99.90;;;;;;5108185;27;20043;-79
2023/12/17 09:51:28;;;;;;;1.75;1.15;;;9.40;99.90;;;;;;5106673;27;20055;-78
2023/12/17 09:53:58;;;;;;;2.20;1.98;;;9.40;99.90;;;;;;5123653;27;20078;-80
2023/12/17 09:56:23;;;;;;;5.43;2.60;;;9.50;99.90;;;;;;5118462;27;20047;-82
2023/12/17 09:58:49;;;;;;;1.88;1.77;;;9.50;99.90;;;;;;5111413;27;20401;-80
2023/12/17 10:01:15;;;;;;;0.63;0.63;;;9.50;99.90;;;;;;5117931;27;20107;-78
2023/12/17 10:03:41;;;;;;;2.85;2.33;;;9.50;99.90;;;;;;5125324;27;20036;-78
2023/12/17 10:06:07;;;;;;;0.40;0.40;;;9.50;99.90;;;;;;5129336;27;20092;-78
2023/12/17 10:08:34;;;;;;;0.90;0.90;;;9.50;99.90;;;;;;5130155;27;20031;-79
2023/12/17 10:11:00;;;;;;;0.82;0.82;;;9.60;99.90;;;;;;5130773;27;20115;-80
2023/12/17 10:13:26;;;;;;;;;;;9.60;99.90;;;;;;5116472;27;20596;-77
2023/12/17 10:15:56;;;;;;;0.75;0.75;;;9.60;99.90;;;;;;5130697;27;19922;-76
2023/12/17 10:18:23;;;;;;;29.33;4.05;;;9.60;99.90;;;;;;5105964;27;20091;-77
2023/12/17 10:20:49;;;;;;;2.63;0.68;;;9.60;99.90;;;;;;5126051;27;20173;-78
2023/12/17 10:23:15;;;;;;;0.65;0.65;;;9.60;99.90;;;;;;5124743;27;20071;-78
2023/12/17 10:25:43;;;;;;;0.75;0.75;;;9.60;99.90;;;;;;5105760;27;20039;-79
2023/12/17 10:28:11;;;;;;;0.70;0.70;;;9.60;99.90;;;;;;5105287;27;20042;-77
2023/12/17 10:30:38;;;;;;;0.68;0.68;;;9.60;99.90;;;;;;5136961;27;20441;-77
2023/12/17 10:33:13;;;;;;;0.40;0.40;;;9.60;99.90;;;;;;5114314;27;20082;-80
2023/12/17 10:35:42;;;;;;;1.60;1.50;;;9.60;99.90;;;;;;5136335;27;20045;-80
2023/12/17 10:38:08;;;;;;;0.50;0.50;;;9.60;99.90;;;;;;5128171;27;20092;-76
2023/12/17 10:40:35;;;;;;;1.65;1.55;;;9.60;99.90;;;;;;5133673;27;20470;-79
2023/12/17 10:43:04;;;;;;;0.77;0.77;;;9.60;99.90;;;;;;5130101;27;20444;-81
2023/12/17 10:45:32;;;;;;;3.22;1.30;;;9.60;99.90;;;;;;5129260;27;20695;-79
2023/12/17 10:48:05;;;;;;;0.70;0.70;;;9.60;99.90;;;;;;5113109;27;20517;-80
2023/12/17 10:50:33;;;;;;;2.13;2.03;;;9.50;99.90;;;;;;5123020;27;20044;-77
2023/12/17 10:52:59;;;;;;;1.40;1.10;;;9.60;99.90;;;;;;5124573;27;20108;-79
2023/12/17 10:55:25;;;;;;;1.15;1.05;;;9.60;99.90;;;;;;5125655;27;20038;-81
2023/12/17 10:57:56;;;;;;;2.20;2.00;;;9.50;99.90;;;;;;5130073;27;20035;-79
2023/12/17 11:00:26;;;;;;;1.98;1.88;;;9.60;99.90;;;;;;5124604;27;20059;-77
2023/12/17 11:02:55;;;;;;;0.75;0.75;;;9.60;99.90;;;;;;5110364;27;20122;-81
2023/12/17 11:05:21;;;;;;;1.52;1.25;;;9.70;99.90;;;;;;5119943;27;20061;-80
2023/12/17 11:07:46;;;;;;;1.45;0.93;;;9.70;99.90;;;;;;5127865;27;20061;-81
2023/12/17 11:10:15;;;;;;;2.47;2.25;;;9.70;99.90;;;;;;5127278;27;20054;-82
2023/12/17 11:12:44;;;;;;;4.20;1.85;;;9.70;99.90;;;;;;5130665;27;20043;-75
2023/12/17 11:15:11;;;;;;;5.78;2.05;;;9.70;99.90;;;;;;5130905;27;20054;-79
2023/12/17 11:17:38;;;;;;;1.95;1.85;;;9.70;99.90;;;;;;5137041;27;20526;-81
2023/12/17 11:20:05;;;;;;;1.00;1.00;;;9.70;99.90;;;;;;5091064;27;20050;-80
2023/12/17 11:22:37;;;;;;;2.05;1.95;;;9.70;99.90;;;;;;5128696;27;20047;-79
2023/12/17 11:25:04;;;;;;;1.73;1.63;;;9.70;99.90;;;;;;5129199;27;20043;-78
2023/12/17 11:27:31;;;;;;;4.82;1.35;;;9.80;99.90;;;;;;5126525;27;20597;-80
2023/12/17 11:30:03;;;;;;;1.13;0.85;;;9.80;99.90;;;;;;5127688;27;20129;-78
2023/12/17 11:32:30;;;;;;;1.17;1.10;;;9.80;99.90;;;;;;5123713;27;20043;-78
2023/12/17 11:34:57;;;;;;;0.50;0.50;;;9.80;99.90;;;;;;5109760;27;20536;-78
2023/12/17 11:37:24;;;;;;;2.20;1.13;;;9.80;99.90;;;;;;5105832;28;20485;-77
2023/12/17 11:39:52;;;;;;;2.28;2.13;;;9.80;99.90;;;;;;5105025;27;20677;-79
2023/12/17 11:42:19;;;;;;;1.20;1.15;;;9.80;99.90;;;;;;5126979;27;20047;-78
2023/12/17 11:44:51;;;;;;;0.98;0.88;;;9.80;99.90;;;;;;5112134;28;20035;-80
2023/12/17 11:47:23;;;;;;;1.10;0.85;;;9.80;99.90;;;;;;5110130;27;20073;-81
2023/12/17 11:49:49;;;;;;;0.32;0.32;;;9.80;99.90;;;;;;5124399;27;20046;-80
2023/12/17 11:52:18;;;;;;;1.95;1.40;;;9.90;99.90;;;;;;5128755;27;20043;-81
2023/12/17 11:54:44;;;;;;;2.45;2.25;;;9.90;99.90;;;;;;5132983;27;20090;-81
2023/12/17 11:57:16;;;;;;;;;;;9.90;99.90;;;;;;5133363;27;20118;-79
2023/12/17 11:59:42;;;;;;;1.05;0.88;;;10.30;99.90;;;;;;5136968;27;20021;-82
2023/12/17 12:02:08;;;;;;;2.90;2.53;;;9.80;99.90;;;;;;5114995;27;20177;-77
2023/12/17 12:04:44;;;;;;;2.05;1.95;;;9.80;99.90;;;;;;5130051;27;20039;-79
2023/12/17 12:07:11;;;;;;;1.85;1.27;;;9.80;99.90;;;;;;5134284;27;20073;-79
2023/12/17 12:09:37;;;;;;;1.48;0.80;;;9.80;99.90;;;;;;5135638;27;20077;-78
2023/12/17 12:12:14;;;;;;;;;;;9.80;99.90;;;;;;5128537;27;20043;-78
2023/12/17 12:14:40;;;;;;;0.93;0.93;;;9.80;99.90;;;;;;5143161;27;19922;-80
2023/12/17 12:17:05;;;;;;;0.70;0.70;;;9.80;99.90;;;;;;5135991;27;20035;-81
2023/12/17 12:19:31;;;;;;;0.60;0.60;;;9.70;99.90;;;;;;5133701;27;20110;-78
2023/12/17 12:21:57;;;;;;;0.55;0.55;;;9.80;99.90;;;;;;5135971;27;20480;-80
2023/12/17 12:24:24;;;;;;;3.22;1.80;;;9.70;99.90;;;;;;5140303;27;20087;-81
2023/12/17 12:26:50;;;;;;;5.93;1.02;;;9.70;99.90;;;;;;5133916;27;20039;-79
2023/12/17 12:29:16;;;;;;;0.95;0.95;;;9.70;99.90;;;;;;5132295;27;20123;-80
2023/12/17 12:31:51;;;;;;;0.95;0.95;;;9.60;99.90;;;;;;5097702;27;20460;-79
2023/12/17 12:34:17;;;;;;;0.90;0.90;;;9.50;99.90;;;;;;5112479;27;20073;-80
2023/12/17 12:36:50;;;;;;;0.98;0.75;;;9.60;99.90;;;;;;5119368;27;20429;-77
2023/12/17 12:39:19;;;;;;;2.17;1.98;;;9.50;99.90;;;;;;5121910;27;20042;-77
2023/12/17 12:41:50;;;;;;;1.58;1.27;;;9.50;99.90;;;;;;5107326;27;20042;-77
2023/12/17 12:44:17;;;;;;;1.38;1.27;;;9.50;99.90;;;;;;5126096;27;20039;-78
2023/12/17 12:46:46;;;;;;;4.32;2.65;;;9.50;99.90;;;;;;5115273;27;20053;-79
2023/12/17 12:49:11;;;;;;;0.77;0.77;;;9.60;99.90;;;;;;5131227;27;20062;-80
2023/12/17 12:51:37;;;;;;;0.85;0.85;;;9.60;99.90;;;;;;5125710;27;20038;-78
2023/12/17 12:54:03;;;;;;;1.77;1.65;;;9.50;99.90;;;;;;5128955;27;20118;-78
2023/12/17 12:56:29;;;;;;;2.00;0.90;;;9.60;99.90;;;;;;5093635;27;20395;-79